sensor_id;sensor_type;location;lat;lon;timestamp;noise_LAeq;noise_LA_min;noise_LA_max;noise_LA01;noise_LA95
58251;Laerm;51449;51.676;5.812;2023-04-15T00:00:21;36.03;31.69;53.02;;
58251;Laerm;51449;51.676;5.812;2023-04-15T00:02:43;34.69;31.30;45.67;;
58251;Laerm;51449;51.676;5.812;2023-04-15T00:05:05;34.34;30.76;42.95;;
58251;Laerm;51449;51.676;5.812;2023-04-15T00:07:27;34.51;30.90;41.63;;
58251;Laerm;51449;51.676;5.812;2023-04-15T00:09:50;46.84;31.06;65.10;;
58251;Laerm;51449;51.676;5.812;2023-04-15T00:12:15;52.77;31.05;69.00;;
58251;Laerm;51449;51.676;5.812;2023-04-15T00:14:38;55.96;30.27;73.20;;
58251;Laerm;51449;51.676;5.812;2023-04-15T00:17:00;50.67;31.09;67.39;;
58251;Laerm;51449;51.676;5.812;2023-04-15T00:19:22;33.47;28.93;41.90;;
58251;Laerm;51449;51.676;5.812;2023-04-15T00:21:45;45.08;30.20;62.36;;
58251;Laerm;51449;51.676;5.812;2023-04-15T00:24:06;51.36;29.10;69.08;;
58251;Laerm;51449;51.676;5.812;2023-04-15T00:26:28;51.01;30.42;67.76;;
58251;Laerm;51449;51.676;5.812;2023-04-15T00:28:50;32.34;29.56;38.31;;
58251;Laerm;51449;51.676;5.812;2023-04-15T00:31:12;47.83;30.30;65.52;;
58251;Laerm;51449;51.676;5.812;2023-04-15T00:33:34;58.55;31.21;71.51;;
58251;Laerm;51449;51.676;5.812;2023-04-15T00:35:58;50.55;30.54;67.31;;
58251;Laerm;51449;51.676;5.812;2023-04-15T00:38:19;53.17;30.96;71.51;;
58251;Laerm;51449;51.676;5.812;2023-04-15T00:40:42;54.03;29.88;71.57;;
58251;Laerm;51449;51.676;5.812;2023-04-15T00:43:04;36.79;30.24;64.64;;
58251;Laerm;51449;51.676;5.812;2023-04-15T00:45:26;50.42;29.79;67.85;;
58251;Laerm;51449;51.676;5.812;2023-04-15T00:47:50;54.93;32.78;75.68;;
58251;Laerm;51449;51.676;5.812;2023-04-15T00:50:12;49.04;30.15;65.73;;
58251;Laerm;51449;51.676;5.812;2023-04-15T00:52:34;52.70;29.54;68.57;;
58251;Laerm;51449;51.676;5.812;2023-04-15T00:54:56;51.53;31.77;65.84;;
58251;Laerm;51449;51.676;5.812;2023-04-15T00:57:20;33.86;29.99;45.68;;
58251;Laerm;51449;51.676;5.812;2023-04-15T00:59:43;32.73;29.53;38.67;;
58251;Laerm;51449;51.676;5.812;2023-04-15T01:02:06;34.03;29.24;52.36;;
58251;Laerm;51449;51.676;5.812;2023-04-15T01:04:29;35.09;29.18;44.45;;
58251;Laerm;51449;51.676;5.812;2023-04-15T01:06:51;52.20;29.57;67.38;;
58251;Laerm;51449;51.676;5.812;2023-04-15T01:09:13;34.89;29.43;66.98;;
58251;Laerm;51449;51.676;5.812;2023-04-15T01:11:36;50.32;30.58;65.44;;
58251;Laerm;51449;51.676;5.812;2023-04-15T01:13:58;50.12;28.96;67.49;;
58251;Laerm;51449;51.676;5.812;2023-04-15T01:16:20;48.90;30.37;66.21;;
58251;Laerm;51449;51.676;5.812;2023-04-15T01:18:43;45.22;29.70;61.39;;
58251;Laerm;51449;51.676;5.812;2023-04-15T01:21:05;58.17;32.57;77.14;;
58251;Laerm;51449;51.676;5.812;2023-04-15T01:23:28;59.65;33.63;77.63;;
58251;Laerm;51449;51.676;5.812;2023-04-15T01:25:52;38.22;31.18;50.41;;
58251;Laerm;51449;51.676;5.812;2023-04-15T01:28:14;58.44;32.22;74.76;;
58251;Laerm;51449;51.676;5.812;2023-04-15T01:30:36;36.37;30.85;51.45;;
58251;Laerm;51449;51.676;5.812;2023-04-15T01:32:58;60.32;31.93;76.28;;
58251;Laerm;51449;51.676;5.812;2023-04-15T01:35:21;49.09;30.16;65.01;;
58251;Laerm;51449;51.676;5.812;2023-04-15T01:37:45;32.48;29.93;37.43;;
58251;Laerm;51449;51.676;5.812;2023-04-15T01:40:10;33.27;30.25;54.11;;
58251;Laerm;51449;51.676;5.812;2023-04-15T01:42:35;50.84;30.92;67.68;;
58251;Laerm;51449;51.676;5.812;2023-04-15T01:44:58;54.63;32.37;70.03;;
58251;Laerm;51449;51.676;5.812;2023-04-15T01:47:20;53.22;31.55;66.25;;
58251;Laerm;51449;51.676;5.812;2023-04-15T01:49:42;51.47;28.79;69.29;;
58251;Laerm;51449;51.676;5.812;2023-04-15T01:52:04;31.43;28.58;40.40;;
58251;Laerm;51449;51.676;5.812;2023-04-15T01:54:27;48.31;29.21;67.61;;
58251;Laerm;51449;51.676;5.812;2023-04-15T01:56:48;41.20;28.63;69.51;;
58251;Laerm;51449;51.676;5.812;2023-04-15T01:59:12;50.63;29.84;66.72;;
58251;Laerm;51449;51.676;5.812;2023-04-15T02:01:34;48.98;29.51;67.49;;
58251;Laerm;51449;51.676;5.812;2023-04-15T02:03:56;39.38;28.59;56.26;;
58251;Laerm;51449;51.676;5.812;2023-04-15T02:06:18;44.39;30.03;62.90;;
58251;Laerm;51449;51.676;5.812;2023-04-15T02:08:41;57.41;33.10;70.75;;
58251;Laerm;51449;51.676;5.812;2023-04-15T02:11:03;37.97;32.64;49.15;;
58251;Laerm;51449;51.676;5.812;2023-04-15T02:13:25;54.14;29.74;68.58;;
58251;Laerm;51449;51.676;5.812;2023-04-15T02:15:50;55.67;30.17;68.03;;
58251;Laerm;51449;51.676;5.812;2023-04-15T02:18:15;54.59;32.00;68.81;;
58251;Laerm;51449;51.676;5.812;2023-04-15T02:20:37;53.34;31.47;70.03;;
58251;Laerm;51449;51.676;5.812;2023-04-15T02:23:00;49.38;30.89;66.66;;
58251;Laerm;51449;51.676;5.812;2023-04-15T02:25:22;47.98;32.08;64.71;;
58251;Laerm;51449;51.676;5.812;2023-04-15T02:27:44;57.33;31.64;74.32;;
58251;Laerm;51449;51.676;5.812;2023-04-15T02:30:07;48.99;29.64;67.01;;
58251;Laerm;51449;51.676;5.812;2023-04-15T02:32:28;41.53;30.84;59.74;;
58251;Laerm;51449;51.676;5.812;2023-04-15T02:34:50;47.13;29.22;63.34;;
58251;Laerm;51449;51.676;5.812;2023-04-15T02:37:13;37.50;29.27;57.15;;
58251;Laerm;51449;51.676;5.812;2023-04-15T02:39:35;54.64;28.76;73.76;;
58251;Laerm;51449;51.676;5.812;2023-04-15T02:41:56;41.55;29.78;59.68;;
58251;Laerm;51449;51.676;5.812;2023-04-15T02:44:20;57.21;31.64;72.42;;
58251;Laerm;51449;51.676;5.812;2023-04-15T02:46:45;46.09;30.22;63.10;;
58251;Laerm;51449;51.676;5.812;2023-04-15T02:49:11;51.62;30.65;67.96;;
58251;Laerm;51449;51.676;5.812;2023-04-15T02:51:32;42.09;30.71;61.39;;
58251;Laerm;51449;51.676;5.812;2023-04-15T02:53:54;53.57;32.21;69.58;;
58251;Laerm;51449;51.676;5.812;2023-04-15T02:56:17;50.78;33.64;66.29;;
58251;Laerm;51449;51.676;5.812;2023-04-15T02:58:41;38.63;31.15;57.75;;
58251;Laerm;51449;51.676;5.812;2023-04-15T03:01:03;53.46;32.71;68.73;;
58251;Laerm;51449;51.676;5.812;2023-04-15T03:03:25;51.42;31.38;65.83;;
58251;Laerm;51449;51.676;5.812;2023-04-15T03:05:48;42.05;31.64;56.50;;
58251;Laerm;51449;51.676;5.812;2023-04-15T03:08:11;57.77;33.44;72.70;;
58251;Laerm;51449;51.676;5.812;2023-04-15T03:10:33;47.54;32.10;63.63;;
58251;Laerm;51449;51.676;5.812;2023-04-15T03:12:55;39.05;30.51;55.18;;
58251;Laerm;51449;51.676;5.812;2023-04-15T03:15:18;49.58;31.38;66.51;;
58251;Laerm;51449;51.676;5.812;2023-04-15T03:17:43;59.30;33.06;75.09;;
58251;Laerm;51449;51.676;5.812;2023-04-15T03:20:06;54.95;33.45;68.96;;
58251;Laerm;51449;51.676;5.812;2023-04-15T03:22:28;59.25;32.45;77.65;;
58251;Laerm;51449;51.676;5.812;2023-04-15T03:24:51;58.84;33.59;72.12;;
58251;Laerm;51449;51.676;5.812;2023-04-15T03:27:12;42.34;31.60;56.66;;
58251;Laerm;51449;51.676;5.812;2023-04-15T03:29:35;58.96;36.92;73.86;;
58251;Laerm;51449;51.676;5.812;2023-04-15T03:31:57;60.03;32.40;74.67;;
58251;Laerm;51449;51.676;5.812;2023-04-15T03:34:19;65.14;35.19;81.70;;
58251;Laerm;51449;51.676;5.812;2023-04-15T03:36:41;64.95;33.25;81.71;;
58251;Laerm;51449;51.676;5.812;2023-04-15T03:39:03;65.56;36.02;82.99;;
58251;Laerm;51449;51.676;5.812;2023-04-15T03:41:25;65.67;33.54;81.11;;
58251;Laerm;51449;51.676;5.812;2023-04-15T03:43:47;66.29;38.88;84.51;;
58251;Laerm;51449;51.676;5.812;2023-04-15T03:46:09;64.62;38.51;82.02;;
58251;Laerm;51449;51.676;5.812;2023-04-15T03:48:31;54.81;40.01;71.26;;
58251;Laerm;51449;51.676;5.812;2023-04-15T03:50:52;64.00;42.33;77.94;;
58251;Laerm;51449;51.676;5.812;2023-04-15T03:53:15;64.08;43.42;80.13;;
58251;Laerm;51449;51.676;5.812;2023-04-15T03:55:37;64.38;44.18;79.37;;
58251;Laerm;51449;51.676;5.812;2023-04-15T03:57:58;63.70;45.80;78.55;;
58251;Laerm;51449;51.676;5.812;2023-04-15T04:00:20;64.29;45.01;77.88;;
58251;Laerm;51449;51.676;5.812;2023-04-15T04:02:44;63.93;46.44;78.08;;
58251;Laerm;51449;51.676;5.812;2023-04-15T04:05:07;66.66;48.21;80.60;;
58251;Laerm;51449;51.676;5.812;2023-04-15T04:07:29;69.26;46.31;81.45;;
58251;Laerm;51449;51.676;5.812;2023-04-15T04:09:51;69.25;45.91;82.88;;
58251;Laerm;51449;51.676;5.812;2023-04-15T04:12:13;68.54;43.50;81.23;;
58251;Laerm;51449;51.676;5.812;2023-04-15T04:14:34;68.31;44.18;81.48;;
58251;Laerm;51449;51.676;5.812;2023-04-15T04:16:56;69.72;47.56;82.03;;
58251;Laerm;51449;51.676;5.812;2023-04-15T04:19:18;68.24;43.46;82.50;;
58251;Laerm;51449;51.676;5.812;2023-04-15T04:21:40;71.14;42.59;85.17;;
58251;Laerm;51449;51.676;5.812;2023-04-15T04:24:02;70.50;46.26;83.53;;
58251;Laerm;51449;51.676;5.812;2023-04-15T04:26:24;69.57;43.75;82.17;;
58251;Laerm;51449;51.676;5.812;2023-04-15T04:28:45;69.02;43.01;82.56;;
58251;Laerm;51449;51.676;5.812;2023-04-15T04:31:07;70.56;43.75;82.88;;
58251;Laerm;51449;51.676;5.812;2023-04-15T04:33:29;68.77;41.71;84.49;;
58251;Laerm;51449;51.676;5.812;2023-04-15T04:35:51;66.37;42.30;80.27;;
58251;Laerm;51449;51.676;5.812;2023-04-15T04:38:13;67.25;43.27;82.18;;
58251;Laerm;51449;51.676;5.812;2023-04-15T04:40:34;65.79;42.71;81.31;;
58251;Laerm;51449;51.676;5.812;2023-04-15T04:42:57;67.77;42.23;82.04;;
58251;Laerm;51449;51.676;5.812;2023-04-15T04:45:19;72.46;43.50;85.43;;
58251;Laerm;51449;51.676;5.812;2023-04-15T04:47:41;73.47;44.88;87.95;;
58251;Laerm;51449;51.676;5.812;2023-04-15T04:50:04;69.04;43.03;88.23;;
58251;Laerm;51449;51.676;5.812;2023-04-15T04:52:26;67.22;40.79;84.10;;
58251;Laerm;51449;51.676;5.812;2023-04-15T04:54:47;69.25;41.11;86.93;;
58251;Laerm;51449;51.676;5.812;2023-04-15T04:57:09;67.87;41.41;80.86;;
58251;Laerm;51449;51.676;5.812;2023-04-15T04:59:31;69.08;44.26;86.23;;
58251;Laerm;51449;51.676;5.812;2023-04-15T05:01:53;63.96;41.68;81.82;;
58251;Laerm;51449;51.676;5.812;2023-04-15T05:04:16;60.60;41.76;72.12;;
58251;Laerm;51449;51.676;5.812;2023-04-15T05:06:39;63.36;42.07;76.87;;
58251;Laerm;51449;51.676;5.812;2023-04-15T05:09:02;63.40;40.38;84.32;;
58251;Laerm;51449;51.676;5.812;2023-04-15T05:11:24;61.77;41.86;79.76;;
58251;Laerm;51449;51.676;5.812;2023-04-15T05:13:46;62.49;42.48;77.51;;
58251;Laerm;51449;51.676;5.812;2023-04-15T05:16:09;64.45;42.64;78.84;;
58251;Laerm;51449;51.676;5.812;2023-04-15T05:18:32;63.68;39.79;80.48;;
58251;Laerm;51449;51.676;5.812;2023-04-15T05:20:55;62.38;43.07;75.47;;
58251;Laerm;51449;51.676;5.812;2023-04-15T05:23:18;64.31;42.50;75.48;;
58251;Laerm;51449;51.676;5.812;2023-04-15T05:25:40;63.86;43.30;77.59;;
58251;Laerm;51449;51.676;5.812;2023-04-15T05:28:02;61.51;42.54;74.56;;
58251;Laerm;51449;51.676;5.812;2023-04-15T05:30:25;61.40;41.46;71.79;;
58251;Laerm;51449;51.676;5.812;2023-04-15T05:32:47;63.92;42.04;75.50;;
58251;Laerm;51449;51.676;5.812;2023-04-15T05:35:09;64.88;44.19;81.88;;
58251;Laerm;51449;51.676;5.812;2023-04-15T05:37:31;65.87;40.75;82.78;;
58251;Laerm;51449;51.676;5.812;2023-04-15T05:39:54;62.05;40.99;76.26;;
58251;Laerm;51449;51.676;5.812;2023-04-15T05:42:16;64.93;42.55;78.83;;
58251;Laerm;51449;51.676;5.812;2023-04-15T05:44:38;63.93;39.04;74.73;;
58251;Laerm;51449;51.676;5.812;2023-04-15T05:47:01;61.89;43.47;71.57;;
58251;Laerm;51449;51.676;5.812;2023-04-15T05:49:24;63.33;43.01;73.87;;
58251;Laerm;51449;51.676;5.812;2023-04-15T05:51:47;63.20;42.14;77.20;;
58251;Laerm;51449;51.676;5.812;2023-04-15T05:54:09;63.94;38.90;76.43;;
58251;Laerm;51449;51.676;5.812;2023-04-15T05:56:31;68.34;42.26;81.15;;
58251;Laerm;51449;51.676;5.812;2023-04-15T05:58:54;67.19;41.58;86.13;;
58251;Laerm;51449;51.676;5.812;2023-04-15T06:01:16;65.49;40.74;85.20;;
58251;Laerm;51449;51.676;5.812;2023-04-15T06:03:39;59.72;40.78;73.34;;
58251;Laerm;51449;51.676;5.812;2023-04-15T06:06:01;62.29;41.80;76.36;;
58251;Laerm;51449;51.676;5.812;2023-04-15T06:08:24;61.68;42.36;77.65;;
58251;Laerm;51449;51.676;5.812;2023-04-15T06:10:45;61.62;42.75;78.75;;
58251;Laerm;51449;51.676;5.812;2023-04-15T06:13:07;62.58;40.80;74.69;;
58251;Laerm;51449;51.676;5.812;2023-04-15T06:15:29;64.99;41.13;78.59;;
58251;Laerm;51449;51.676;5.812;2023-04-15T06:17:51;67.47;42.72;77.59;;
58251;Laerm;51449;51.676;5.812;2023-04-15T06:20:13;65.49;42.65;81.54;;
58251;Laerm;51449;51.676;5.812;2023-04-15T06:22:36;68.53;42.60;87.05;;
58251;Laerm;51449;51.676;5.812;2023-04-15T06:24:58;62.06;42.46;80.02;;
58251;Laerm;51449;51.676;5.812;2023-04-15T06:27:20;64.56;47.10;79.69;;
58251;Laerm;51449;51.676;5.812;2023-04-15T06:29:43;66.36;40.96;82.83;;
58251;Laerm;51449;51.676;5.812;2023-04-15T06:32:05;63.58;42.78;79.53;;
58251;Laerm;51449;51.676;5.812;2023-04-15T06:34:27;69.02;44.38;84.49;;
58251;Laerm;51449;51.676;5.812;2023-04-15T06:36:48;66.91;44.58;86.11;;
58251;Laerm;51449;51.676;5.812;2023-04-15T06:39:10;61.70;41.29;77.60;;
58251;Laerm;51449;51.676;5.812;2023-04-15T06:41:32;71.91;47.42;92.54;;
58251;Laerm;51449;51.676;5.812;2023-04-15T06:43:54;65.20;47.03;80.55;;
58251;Laerm;51449;51.676;5.812;2023-04-15T06:46:16;60.87;40.11;76.49;;
58251;Laerm;51449;51.676;5.812;2023-04-15T06:48:38;64.30;39.78;79.65;;
58251;Laerm;51449;51.676;5.812;2023-04-15T06:50:59;68.80;42.93;83.21;;
58251;Laerm;51449;51.676;5.812;2023-04-15T06:53:21;70.22;45.70;85.18;;
58251;Laerm;51449;51.676;5.812;2023-04-15T06:55:43;67.53;44.98;86.92;;
58251;Laerm;51449;51.676;5.812;2023-04-15T06:58:05;66.54;43.67;84.16;;
58251;Laerm;51449;51.676;5.812;2023-04-15T07:00:26;64.40;41.30;78.92;;
58251;Laerm;51449;51.676;5.812;2023-04-15T07:02:50;60.93;42.96;74.05;;
58251;Laerm;51449;51.676;5.812;2023-04-15T07:05:11;66.20;44.48;78.47;;
58251;Laerm;51449;51.676;5.812;2023-04-15T07:07:33;65.56;42.65;78.49;;
58251;Laerm;51449;51.676;5.812;2023-04-15T07:09:55;62.25;39.62;80.83;;
58251;Laerm;51449;51.676;5.812;2023-04-15T07:12:17;64.28;44.89;79.62;;
58251;Laerm;51449;51.676;5.812;2023-04-15T07:14:39;68.55;42.82;85.31;;
58251;Laerm;51449;51.676;5.812;2023-04-15T07:17:00;60.96;43.30;70.25;;
58251;Laerm;51449;51.676;5.812;2023-04-15T07:19:23;69.04;45.52;87.33;;
58251;Laerm;51449;51.676;5.812;2023-04-15T07:21:46;64.50;41.76;77.81;;
58251;Laerm;51449;51.676;5.812;2023-04-15T07:24:08;63.16;44.53;77.75;;
58251;Laerm;51449;51.676;5.812;2023-04-15T07:26:31;64.99;45.40;81.29;;
58251;Laerm;51449;51.676;5.812;2023-04-15T07:28:52;68.33;46.82;82.55;;
58251;Laerm;51449;51.676;5.812;2023-04-15T07:31:14;67.41;47.13;81.97;;
58251;Laerm;51449;51.676;5.812;2023-04-15T07:33:37;69.12;47.60;83.41;;
58251;Laerm;51449;51.676;5.812;2023-04-15T07:35:58;68.69;45.65;82.38;;
58251;Laerm;51449;51.676;5.812;2023-04-15T07:38:20;63.65;43.08;76.06;;
58251;Laerm;51449;51.676;5.812;2023-04-15T07:40:42;64.84;44.90;79.61;;
58251;Laerm;51449;51.676;5.812;2023-04-15T07:43:04;63.01;47.89;75.28;;
58251;Laerm;51449;51.676;5.812;2023-04-15T07:45:26;64.00;50.04;72.64;;
58251;Laerm;51449;51.676;5.812;2023-04-15T07:47:48;64.71;48.97;72.77;;
58251;Laerm;51449;51.676;5.812;2023-04-15T07:50:11;64.77;45.22;76.71;;
58251;Laerm;51449;51.676;5.812;2023-04-15T07:52:33;66.26;45.80;80.25;;
58251;Laerm;51449;51.676;5.812;2023-04-15T07:54:59;65.06;47.91;81.11;;
58251;Laerm;51449;51.676;5.812;2023-04-15T07:57:21;64.39;43.56;73.44;;
58251;Laerm;51449;51.676;5.812;2023-04-15T07:59:42;63.24;44.41;72.66;;
58251;Laerm;51449;51.676;5.812;2023-04-15T08:02:04;65.45;44.40;78.60;;
58251;Laerm;51449;51.676;5.812;2023-04-15T08:04:26;68.50;42.73;85.19;;
58251;Laerm;51449;51.676;5.812;2023-04-15T08:06:48;71.91;45.90;83.56;;
58251;Laerm;51449;51.676;5.812;2023-04-15T08:09:10;69.66;44.29;83.15;;
58251;Laerm;51449;51.676;5.812;2023-04-15T08:11:32;61.03;46.16;71.63;;
58251;Laerm;51449;51.676;5.812;2023-04-15T08:13:54;63.37;43.91;73.69;;
58251;Laerm;51449;51.676;5.812;2023-04-15T08:16:21;63.07;46.51;75.29;;
58251;Laerm;51449;51.676;5.812;2023-04-15T08:18:45;63.71;45.13;74.67;;
58251;Laerm;51449;51.676;5.812;2023-04-15T08:21:07;63.21;46.87;73.72;;
58251;Laerm;51449;51.676;5.812;2023-04-15T08:23:30;65.53;43.17;83.01;;
58251;Laerm;51449;51.676;5.812;2023-04-15T08:25:53;68.09;42.56;87.57;;
58251;Laerm;51449;51.676;5.812;2023-04-15T08:28:14;61.77;43.32;76.97;;
58251;Laerm;51449;51.676;5.812;2023-04-15T08:30:37;68.16;49.23;90.75;;
58251;Laerm;51449;51.676;5.812;2023-04-15T08:32:59;67.33;42.76;83.05;;
58251;Laerm;51449;51.676;5.812;2023-04-15T08:35:21;66.87;44.78;82.08;;
58251;Laerm;51449;51.676;5.812;2023-04-15T08:37:42;65.50;43.29;83.21;;
58251;Laerm;51449;51.676;5.812;2023-04-15T08:40:05;66.53;46.64;84.21;;
58251;Laerm;51449;51.676;5.812;2023-04-15T08:42:31;69.68;46.41;85.26;;
58251;Laerm;51449;51.676;5.812;2023-04-15T08:44:59;64.89;42.77;82.90;;
58251;Laerm;51449;51.676;5.812;2023-04-15T08:47:29;63.97;43.93;80.51;;
58251;Laerm;51449;51.676;5.812;2023-04-15T08:49:54;64.28;45.22;79.59;;
58251;Laerm;51449;51.676;5.812;2023-04-15T08:52:16;69.73;46.56;82.81;;
58251;Laerm;51449;51.676;5.812;2023-04-15T08:54:38;68.98;40.76;82.57;;
58251;Laerm;51449;51.676;5.812;2023-04-15T08:57:00;67.44;45.61;86.61;;
58251;Laerm;51449;51.676;5.812;2023-04-15T08:59:23;68.36;45.16;87.91;;
58251;Laerm;51449;51.676;5.812;2023-04-15T09:01:45;70.63;47.20;92.59;;
58251;Laerm;51449;51.676;5.812;2023-04-15T09:04:07;67.28;45.01;77.26;;
58251;Laerm;51449;51.676;5.812;2023-04-15T09:06:29;65.45;45.05;75.43;;
58251;Laerm;51449;51.676;5.812;2023-04-15T09:08:51;68.53;40.40;83.39;;
58251;Laerm;51449;51.676;5.812;2023-04-15T09:11:13;66.51;45.71;82.85;;
58251;Laerm;51449;51.676;5.812;2023-04-15T09:13:35;64.98;47.25;77.40;;
58251;Laerm;51449;51.676;5.812;2023-04-15T09:15:57;71.17;45.58;88.07;;
58251;Laerm;51449;51.676;5.812;2023-04-15T09:18:30;66.37;46.61;78.69;;
58251;Laerm;51449;51.676;5.812;2023-04-15T09:20:53;66.89;44.64;81.05;;
58251;Laerm;51449;51.676;5.812;2023-04-15T09:23:14;66.43;43.02;81.15;;
58251;Laerm;51449;51.676;5.812;2023-04-15T09:25:39;69.47;43.32;83.04;;
58251;Laerm;51449;51.676;5.812;2023-04-15T09:28:03;69.44;44.78;84.26;;
58251;Laerm;51449;51.676;5.812;2023-04-15T09:30:27;68.49;43.64;83.55;;
58251;Laerm;51449;51.676;5.812;2023-04-15T09:35:14;69.16;43.49;84.06;;
58251;Laerm;51449;51.676;5.812;2023-04-15T09:37:36;64.06;42.65;73.79;;
58251;Laerm;51449;51.676;5.812;2023-04-15T09:39:58;64.65;42.76;75.94;;
58251;Laerm;51449;51.676;5.812;2023-04-15T09:42:19;62.57;45.93;72.73;;
58251;Laerm;51449;51.676;5.812;2023-04-15T09:44:45;64.00;46.07;77.70;;
58251;Laerm;51449;51.676;5.812;2023-04-15T09:47:06;68.59;43.69;84.76;;
58251;Laerm;51449;51.676;5.812;2023-04-15T09:49:28;68.98;44.86;84.16;;
58251;Laerm;51449;51.676;5.812;2023-04-15T09:51:50;66.63;45.81;82.47;;
58251;Laerm;51449;51.676;5.812;2023-04-15T09:54:35;68.74;44.52;81.77;;
58251;Laerm;51449;51.676;5.812;2023-04-15T09:57:04;63.70;48.90;78.82;;
58251;Laerm;51449;51.676;5.812;2023-04-15T09:59:26;66.40;45.53;84.01;;
58251;Laerm;51449;51.676;5.812;2023-04-15T10:01:48;66.67;43.09;88.09;;
58251;Laerm;51449;51.676;5.812;2023-04-15T10:04:11;66.23;43.49;81.99;;
58251;Laerm;51449;51.676;5.812;2023-04-15T10:06:34;65.90;47.29;84.86;;
58251;Laerm;51449;51.676;5.812;2023-04-15T10:08:57;64.98;43.80;79.40;;
58251;Laerm;51449;51.676;5.812;2023-04-15T10:11:21;64.51;50.03;74.01;;
58251;Laerm;51449;51.676;5.812;2023-04-15T10:13:45;62.00;45.41;73.07;;
58251;Laerm;51449;51.676;5.812;2023-04-15T10:16:12;65.35;44.52;77.04;;
58251;Laerm;51449;51.676;5.812;2023-04-15T10:18:41;63.08;44.60;76.58;;
58251;Laerm;51449;51.676;5.812;2023-04-15T10:21:04;63.62;48.14;72.84;;
58251;Laerm;51449;51.676;5.812;2023-04-15T10:23:26;62.93;42.98;74.28;;
58251;Laerm;51449;51.676;5.812;2023-04-15T10:25:52;62.37;44.72;73.89;;
58251;Laerm;51449;51.676;5.812;2023-04-15T10:28:15;63.00;44.31;75.48;;
58251;Laerm;51449;51.676;5.812;2023-04-15T10:30:37;64.26;41.42;76.65;;
58251;Laerm;51449;51.676;5.812;2023-04-15T10:33:04;67.74;41.22;81.52;;
58251;Laerm;51449;51.676;5.812;2023-04-15T10:35:29;64.24;44.96;78.88;;
58251;Laerm;51449;51.676;5.812;2023-04-15T10:37:51;64.62;45.41;80.40;;
58251;Laerm;51449;51.676;5.812;2023-04-15T10:40:29;69.04;44.42;82.61;;
58251;Laerm;51449;51.676;5.812;2023-04-15T10:42:55;64.75;40.45;85.28;;
58251;Laerm;51449;51.676;5.812;2023-04-15T10:45:18;61.87;42.14;73.55;;
58251;Laerm;51449;51.676;5.812;2023-04-15T10:47:42;64.24;43.72;76.28;;
58251;Laerm;51449;51.676;5.812;2023-04-15T10:50:04;62.91;45.52;70.71;;
58251;Laerm;51449;51.676;5.812;2023-04-15T10:52:28;59.84;41.67;71.36;;
58251;Laerm;51449;51.676;5.812;2023-04-15T10:55:14;62.65;43.60;74.91;;
58251;Laerm;51449;51.676;5.812;2023-04-15T10:57:39;68.08;49.25;84.83;;
58251;Laerm;51449;51.676;5.812;2023-04-15T11:00:11;63.35;44.37;73.10;;
58251;Laerm;51449;51.676;5.812;2023-04-15T11:05:16;61.69;42.66;73.97;;
58251;Laerm;51449;51.676;5.812;2023-04-15T11:07:51;64.51;47.66;75.19;;
58251;Laerm;51449;51.676;5.812;2023-04-15T11:12:35;62.77;46.37;72.09;;
58251;Laerm;51449;51.676;5.812;2023-04-15T11:14:57;66.83;47.13;84.79;;
58251;Laerm;51449;51.676;5.812;2023-04-15T11:17:26;67.64;47.98;81.59;;
58251;Laerm;51449;51.676;5.812;2023-04-15T11:19:49;62.43;44.76;77.84;;
58251;Laerm;51449;51.676;5.812;2023-04-15T11:22:11;62.03;44.55;72.13;;
58251;Laerm;51449;51.676;5.812;2023-04-15T11:24:33;62.92;43.40;73.76;;
58251;Laerm;51449;51.676;5.812;2023-04-15T11:27:00;66.13;45.29;76.12;;
58251;Laerm;51449;51.676;5.812;2023-04-15T11:29:28;67.08;56.53;86.18;;
58251;Laerm;51449;51.676;5.812;2023-04-15T11:31:51;67.63;54.71;81.61;;
58251;Laerm;51449;51.676;5.812;2023-04-15T11:34:21;70.39;55.41;85.75;;
58251;Laerm;51449;51.676;5.812;2023-04-15T11:36:43;68.03;55.16;84.00;;
58251;Laerm;51449;51.676;5.812;2023-04-15T11:39:06;65.84;53.01;80.60;;
58251;Laerm;51449;51.676;5.812;2023-04-15T11:41:28;66.79;54.40;82.77;;
58251;Laerm;51449;51.676;5.812;2023-04-15T11:43:50;68.61;52.49;83.41;;
58251;Laerm;51449;51.676;5.812;2023-04-15T11:46:12;66.84;53.55;82.34;;
58251;Laerm;51449;51.676;5.812;2023-04-15T11:48:35;65.44;51.89;82.96;;
58251;Laerm;51449;51.676;5.812;2023-04-15T11:51:03;66.02;54.36;78.18;;
58251;Laerm;51449;51.676;5.812;2023-04-15T11:53:55;67.57;53.35;89.43;;
58251;Laerm;51449;51.676;5.812;2023-04-15T11:56:20;65.69;46.37;83.44;;
58251;Laerm;51449;51.676;5.812;2023-04-15T11:58:42;64.40;44.01;81.45;;
58251;Laerm;51449;51.676;5.812;2023-04-15T12:01:06;66.68;54.29;81.70;;
58251;Laerm;51449;51.676;5.812;2023-04-15T12:03:48;69.38;56.04;86.51;;
58251;Laerm;51449;51.676;5.812;2023-04-15T12:06:19;69.81;54.53;84.01;;
58251;Laerm;51449;51.676;5.812;2023-04-15T12:11:17;66.91;50.78;81.73;;
58251;Laerm;51449;51.676;5.812;2023-04-15T12:13:45;66.29;51.27;78.78;;
58251;Laerm;51449;51.676;5.812;2023-04-15T12:16:07;65.40;55.65;74.93;;
58251;Laerm;51449;51.676;5.812;2023-04-15T12:18:29;67.67;55.41;87.89;;
58251;Laerm;51449;51.676;5.812;2023-04-15T12:20:51;69.12;56.88;82.33;;
58251;Laerm;51449;51.676;5.812;2023-04-15T12:23:18;69.36;53.63;86.22;;
58251;Laerm;51449;51.676;5.812;2023-04-15T12:25:40;69.34;47.43;90.16;;
58251;Laerm;51449;51.676;5.812;2023-04-15T12:28:10;66.78;42.24;80.23;;
58251;Laerm;51449;51.676;5.812;2023-04-15T12:30:32;66.01;43.66;80.95;;
58251;Laerm;51449;51.676;5.812;2023-04-15T12:32:54;69.39;45.73;86.48;;
58251;Laerm;51449;51.676;5.812;2023-04-15T12:35:17;70.12;43.55;85.67;;
58251;Laerm;51449;51.676;5.812;2023-04-15T12:37:42;68.11;45.91;84.10;;
58251;Laerm;51449;51.676;5.812;2023-04-15T12:40:07;66.40;49.67;83.98;;
58251;Laerm;51449;51.676;5.812;2023-04-15T12:42:29;65.21;48.50;83.62;;
58251;Laerm;51449;51.676;5.812;2023-04-15T12:44:51;70.28;50.30;83.59;;
58251;Laerm;51449;51.676;5.812;2023-04-15T12:47:13;70.03;54.74;84.34;;
58251;Laerm;51449;51.676;5.812;2023-04-15T12:49:35;69.39;52.73;86.18;;
58251;Laerm;51449;51.676;5.812;2023-04-15T12:51:58;63.27;48.62;72.51;;
58251;Laerm;51449;51.676;5.812;2023-04-15T12:54:22;65.79;48.31;77.39;;
58251;Laerm;51449;51.676;5.812;2023-04-15T12:56:46;64.39;46.07;82.05;;
58251;Laerm;51449;51.676;5.812;2023-04-15T12:59:08;68.42;51.80;81.99;;
58251;Laerm;51449;51.676;5.812;2023-04-15T13:01:30;64.08;52.24;79.76;;
58251;Laerm;51449;51.676;5.812;2023-04-15T13:03:52;65.42;53.21;81.75;;
58251;Laerm;51449;51.676;5.812;2023-04-15T13:06:14;65.96;53.71;75.65;;
58251;Laerm;51449;51.676;5.812;2023-04-15T13:08:36;67.46;55.04;81.83;;
58251;Laerm;51449;51.676;5.812;2023-04-15T13:11:06;61.94;48.09;78.78;;
58251;Laerm;51449;51.676;5.812;2023-04-15T13:13:27;70.76;47.50;90.07;;
58251;Laerm;51449;51.676;5.812;2023-04-15T13:15:49;68.03;49.87;85.26;;
58251;Laerm;51449;51.676;5.812;2023-04-15T13:18:11;69.51;45.36;85.48;;
58251;Laerm;51449;51.676;5.812;2023-04-15T13:20:33;69.22;44.13;84.07;;
58251;Laerm;51449;51.676;5.812;2023-04-15T13:22:55;65.71;44.50;78.32;;
58251;Laerm;51449;51.676;5.812;2023-04-15T13:25:17;64.26;43.81;77.05;;
58251;Laerm;51449;51.676;5.812;2023-04-15T13:27:39;62.38;47.79;76.11;;
58251;Laerm;51449;51.676;5.812;2023-04-15T13:30:02;65.01;51.94;76.25;;